createdAt,value
2023-02-06T00:01:48.305Z,7.37
2023-02-06T00:04:15.961Z,8.30
2023-02-06T00:06:43.752Z,7.63
2023-02-06T00:09:11.753Z,7.70
2023-02-06T00:11:39.097Z,7.13
2023-02-06T00:14:07.169Z,9.33
2023-02-06T00:16:35.753Z,9.47
2023-02-06T00:19:05.270Z,7.97
2023-02-06T00:21:33.065Z,9.23
2023-02-06T00:24:05.036Z,8.20
2023-02-06T00:26:32.468Z,7.10
2023-02-06T00:28:59.958Z,6.80
2023-02-06T00:31:27.416Z,6.47
2023-02-06T00:33:54.892Z,5.23
2023-02-06T00:36:22.220Z,8.37
2023-02-06T00:38:49.587Z,7.73
2023-02-06T00:41:26.387Z,7.33
2023-02-06T00:43:53.799Z,7.83
2023-02-06T00:46:21.312Z,5.10
2023-02-06T00:48:48.645Z,5.43
2023-02-06T00:51:16.202Z,7.43
2023-02-06T00:53:43.658Z,6.70
2023-02-06T00:56:13.098Z,6.73
2023-02-06T00:58:40.424Z,5.47
2023-02-06T01:01:08.056Z,6.77
2023-02-06T01:03:37.845Z,5.53
2023-02-06T01:06:06.271Z,5.27
2023-02-06T01:08:35.747Z,6.00
2023-02-06T01:11:20.768Z,6.10
2023-02-06T01:13:48.703Z,4.60
2023-02-06T01:16:19.019Z,5.53
2023-02-06T01:18:46.498Z,4.93
2023-02-06T01:21:20.630Z,6.37
2023-02-06T01:23:49.699Z,6.80
2023-02-06T01:26:21.524Z,5.23
2023-02-06T01:31:27.979Z,5.10
2023-02-06T01:33:56.885Z,5.97
2023-02-06T01:36:27.578Z,7.00
2023-02-06T01:38:55.316Z,5.77
2023-02-06T01:41:23.866Z,7.83
2023-02-06T01:44:11.525Z,7.23
2023-02-06T01:46:42.680Z,6.17
2023-02-06T01:49:17.083Z,7.68
2023-02-06T01:51:49.491Z,6.80
2023-02-06T01:54:17.287Z,7.67
2023-02-06T01:56:49.707Z,7.60
2023-02-06T01:59:17.517Z,6.70
2023-02-06T02:01:45.319Z,6.97
2023-02-06T02:04:20.121Z,5.90
2023-02-06T02:07:13.554Z,5.60
2023-02-06T02:09:41.399Z,6.97
2023-02-06T02:12:13.548Z,7.33
2023-02-06T02:14:44.382Z,5.97
2023-02-06T02:17:17.993Z,6.37
2023-02-06T02:20:06.269Z,5.10
2023-02-06T02:22:51.403Z,6.37
2023-02-06T02:25:42.658Z,6.77
2023-02-06T02:28:42.434Z,4.45
2023-02-06T02:31:33.569Z,6.50
2023-02-06T02:34:11.916Z,6.68
2023-02-06T02:37:02.670Z,6.50
2023-02-06T02:40:08.068Z,6.97
2023-02-06T02:43:02.072Z,6.83
2023-02-06T02:45:47.542Z,5.30
2023-02-06T02:48:30.695Z,6.43
2023-02-06T02:50:59.902Z,6.30
2023-02-06T02:53:27.796Z,6.03
2023-02-06T02:55:55.656Z,6.57
2023-02-06T02:58:31.420Z,5.60
2023-02-06T03:01:04.543Z,6.33
2023-02-06T03:03:34.328Z,9.23
2023-02-06T03:06:15.474Z,7.10
2023-02-06T03:08:52.554Z,6.68
2023-02-06T03:11:21.651Z,6.40
2023-02-06T03:14:06.223Z,5.23
2023-02-06T03:16:46.269Z,6.10
2023-02-06T03:19:19.033Z,6.20
2023-02-06T03:21:48.975Z,6.37
2023-02-06T03:24:29.176Z,7.90
2023-02-06T03:27:03.138Z,7.90
2023-02-06T03:29:35.450Z,5.73
2023-02-06T03:32:11.178Z,8.37
2023-02-06T03:34:51.102Z,11.47
2023-02-06T03:37:18.649Z,7.87
2023-02-06T03:39:46.259Z,10.60
2023-02-06T03:42:19.694Z,7.63
2023-02-06T03:44:51.601Z,6.87
2023-02-06T03:47:21.283Z,7.43
2023-02-06T03:49:51.058Z,6.47
2023-02-06T03:52:23.392Z,8.17
2023-02-06T03:54:59.816Z,9.90
2023-02-06T03:57:30.953Z,7.53
2023-02-06T03:59:58.545Z,7.18
2023-02-06T04:02:26.901Z,7.63
2023-02-06T04:04:54.391Z,8.60
2023-02-06T04:07:31.309Z,8.67
2023-02-06T04:09:58.844Z,6.60
2023-02-06T04:12:26.725Z,8.90
2023-02-06T04:14:54.301Z,9.77
2023-02-06T04:17:38.752Z,9.87
2023-02-06T04:20:11.496Z,7.63
2023-02-06T04:22:40.107Z,8.20
2023-02-06T04:25:07.967Z,8.83
2023-02-06T04:27:36.523Z,10.87
2023-02-06T04:30:05.416Z,9.80
2023-02-06T04:32:33.090Z,9.33
2023-02-06T04:35:02.521Z,8.27
2023-02-06T04:37:32.364Z,7.73
2023-02-06T04:39:59.817Z,8.27
2023-02-06T04:42:27.395Z,8.13
2023-02-06T04:44:55.031Z,10.80
2023-02-06T04:47:22.488Z,11.73
2023-02-06T04:49:49.938Z,9.53
2023-02-06T04:52:17.372Z,12.33
2023-02-06T04:54:47.514Z,12.67
2023-02-06T04:57:15.155Z,9.90
2023-02-06T04:59:45.514Z,9.13
2023-02-06T05:02:12.917Z,10.27
2023-02-06T05:04:40.221Z,10.93
2023-02-06T05:07:07.679Z,9.63
2023-02-06T05:09:37.419Z,8.47
2023-02-06T05:12:05.179Z,9.53
2023-02-06T05:14:33.001Z,10.40
2023-02-06T05:17:03.560Z,8.33
2023-02-06T05:19:31.094Z,10.07
2023-02-06T05:21:58.477Z,8.33
2023-02-06T05:24:28.486Z,8.83
2023-02-06T05:26:57.953Z,9.10
2023-02-06T05:29:26.060Z,9.57
2023-02-06T05:31:56.240Z,8.30
2023-02-06T05:34:23.760Z,9.70
2023-02-06T05:36:51.159Z,7.43
2023-02-06T05:39:18.604Z,7.53
2023-02-06T05:41:46.118Z,7.53
2023-02-06T05:44:13.605Z,8.87
2023-02-06T05:46:41.256Z,8.93
2023-02-06T05:49:08.746Z,8.00
2023-02-06T05:51:36.274Z,9.57
2023-02-06T05:54:12.454Z,7.33
2023-02-06T05:56:39.860Z,8.67
2023-02-06T05:59:07.494Z,8.80
2023-02-06T06:01:34.977Z,7.83
2023-02-06T06:04:02.862Z,9.63
2023-02-06T06:06:32.342Z,9.60
2023-02-06T06:09:01.389Z,8.43
2023-02-06T06:11:34.708Z,9.23
2023-02-06T06:14:02.426Z,8.97
2023-02-06T06:16:29.823Z,9.70
2023-02-06T06:19:03.214Z,8.70
2023-02-06T06:21:31.030Z,9.87
2023-02-06T06:24:00.323Z,10.93
2023-02-06T06:26:28.000Z,9.00
2023-02-06T06:28:56.552Z,8.73
2023-02-06T06:31:24.095Z,10.83
2023-02-06T06:33:54.286Z,13.37
2023-02-06T06:36:24.090Z,9.90
2023-02-06T06:38:51.428Z,8.90
2023-02-06T06:41:19.946Z,10.87
2023-02-06T06:43:48.127Z,12.63
2023-02-06T06:46:16.654Z,7.10
2023-02-06T06:48:44.248Z,15.77
2023-02-06T06:51:11.625Z,9.30
2023-02-06T06:53:40.198Z,12.70
2023-02-06T06:56:12.403Z,10.53
2023-02-06T06:58:40.875Z,10.90
2023-02-06T07:01:09.085Z,10.60
2023-02-06T07:03:36.873Z,11.83
2023-02-06T07:06:05.392Z,14.47
2023-02-06T07:08:33.026Z,12.83
2023-02-06T07:11:04.810Z,10.63
2023-02-06T07:16:20.300Z,13.03
2023-02-06T07:18:48.120Z,11.07
2023-02-06T07:21:16.207Z,12.83
2023-02-06T07:23:43.870Z,11.70
2023-02-06T07:26:22.159Z,10.50
2023-02-06T07:28:50.133Z,11.80
2023-02-06T07:31:17.931Z,11.23
2023-02-06T07:33:45.968Z,10.87
2023-02-06T07:36:15.767Z,11.43
2023-02-06T07:38:45.062Z,12.73
2023-02-06T07:41:21.709Z,12.90
2023-02-06T07:43:58.270Z,14.43
2023-02-06T07:46:26.622Z,12.80
2023-02-06T07:48:59.556Z,11.57
2023-02-06T07:51:27.036Z,13.90
2023-02-06T07:53:54.998Z,12.77
2023-02-06T07:56:25.556Z,10.43
2023-02-06T07:58:54.677Z,11.97
2023-02-06T08:01:27.823Z,12.90
2023-02-06T08:03:56.234Z,11.13
2023-02-06T08:06:31.421Z,10.63
2023-02-06T08:09:11.149Z,9.73
2023-02-06T08:11:39.395Z,10.67
2023-02-06T08:14:09.967Z,14.97
2023-02-06T08:16:37.712Z,12.13
2023-02-06T08:19:07.060Z,12.80
2023-02-06T08:21:40.373Z,11.23
2023-02-06T08:24:11.177Z,9.33
2023-02-06T08:26:50.191Z,13.30
2023-02-06T08:29:17.737Z,11.17
2023-02-06T08:31:45.580Z,10.67
2023-02-06T08:34:16.432Z,11.63
2023-02-06T08:36:44.710Z,14.43
2023-02-06T08:39:19.020Z,12.17
2023-02-06T08:41:50.957Z,12.03
2023-02-06T08:44:21.926Z,12.00
2023-02-06T08:47:04.718Z,11.93
2023-02-06T08:49:39.640Z,11.30
2023-02-06T08:52:10.364Z,10.97
2023-02-06T08:54:38.964Z,11.63
2023-02-06T08:57:10.035Z,13.03
2023-02-06T08:59:37.517Z,13.25
2023-02-06T09:02:06.575Z,10.37
2023-02-06T09:04:37.932Z,9.23
2023-02-06T09:07:15.163Z,12.50
2023-02-06T09:09:48.194Z,11.47
2023-02-06T09:12:18.759Z,10.00
2023-02-06T09:14:46.351Z,10.40
2023-02-06T09:17:14.006Z,12.17
2023-02-06T09:19:43.014Z,11.07
2023-02-06T09:22:10.441Z,10.00
2023-02-06T09:24:41.228Z,10.77
2023-02-06T09:27:19.502Z,11.90
2023-02-06T09:29:50.698Z,11.93
2023-02-06T09:32:27.002Z,10.15
2023-02-06T09:34:54.686Z,11.77
2023-02-06T09:37:25.364Z,11.93
2023-02-06T09:39:53.223Z,11.53
2023-02-06T09:42:39.107Z,10.70
2023-02-06T09:45:14.194Z,12.30
2023-02-06T09:47:52.132Z,11.20
2023-02-06T09:50:34.787Z,10.27
2023-02-06T09:53:19.693Z,11.33
2023-02-06T09:56:00.609Z,14.43
2023-02-06T09:58:35.422Z,13.37
2023-02-06T10:01:32.794Z,13.20
2023-02-06T10:04:22.230Z,15.43
2023-02-06T10:07:04.871Z,12.37
2023-02-06T10:09:46.225Z,13.30
2023-02-06T10:12:28.916Z,15.82
2023-02-06T10:15:23.737Z,11.27
2023-02-06T10:17:58.524Z,13.83
2023-02-06T10:20:41.897Z,12.27
2023-02-06T10:23:23.016Z,10.97
2023-02-06T10:26:14.893Z,12.85
2023-02-06T10:28:43.579Z,11.45
2023-02-06T10:31:16.524Z,12.67
2023-02-06T10:34:09.418Z,11.40
2023-02-06T10:36:46.390Z,14.07
2023-02-06T10:39:44.191Z,12.80
2023-02-06T10:42:17.825Z,12.63
2023-02-06T10:45:22.063Z,13.37
2023-02-06T10:47:55.930Z,12.97
2023-02-06T10:50:37.343Z,12.53
2023-02-06T10:53:12.787Z,12.57
2023-02-06T10:55:55.669Z,10.87
2023-02-06T10:58:38.757Z,13.33
2023-02-06T11:01:23.923Z,13.47
2023-02-06T11:04:01.396Z,10.50
2023-02-06T11:06:30.186Z,11.67
2023-02-06T11:08:57.951Z,11.40
2023-02-06T11:11:32.301Z,11.77
2023-02-06T11:14:27.830Z,10.90
2023-02-06T11:16:57.842Z,15.40
2023-02-06T11:19:41.650Z,11.27
2023-02-06T11:22:16.858Z,11.27
2023-02-06T11:25:09.358Z,11.60
2023-02-06T11:27:44.360Z,11.23
2023-02-06T11:30:36.861Z,9.30
2023-02-06T11:33:09.206Z,11.00
2023-02-06T11:35:48.564Z,11.40
2023-02-06T11:38:24.583Z,9.73
2023-02-06T11:41:06.499Z,12.97
2023-02-06T11:46:20.706Z,10.07
2023-02-06T11:48:55.565Z,11.70
2023-02-06T11:51:26.883Z,11.73
2023-02-06T11:54:02.606Z,13.98
2023-02-06T11:56:31.583Z,10.40
2023-02-06T11:59:16.792Z,9.00
2023-02-06T12:01:46.895Z,8.25
2023-02-06T12:04:31.518Z,10.65
2023-02-06T12:07:06.735Z,9.95
2023-02-06T12:09:34.504Z,10.07
2023-02-06T12:12:10.459Z,8.50
2023-02-06T12:14:39.990Z,8.07
2023-02-06T12:17:23.367Z,8.70
2023-02-06T12:20:01.691Z,9.77
2023-02-06T12:22:36.019Z,9.68
2023-02-06T12:25:05.407Z,10.13
2023-02-06T12:27:39.620Z,8.43
2023-02-06T12:30:34.731Z,9.52
2023-02-06T12:33:19.670Z,10.45
2023-02-06T12:35:52.396Z,9.15
2023-02-06T12:38:34.891Z,9.33
2023-02-06T12:41:27.454Z,10.40
2023-02-06T12:44:19.193Z,9.98
2023-02-06T12:46:51.469Z,9.45
2023-02-06T12:49:25.879Z,8.90
2023-02-06T12:52:17.491Z,11.38
2023-02-06T12:55:12.005Z,7.30
2023-02-06T12:57:42.825Z,10.38
2023-02-06T13:00:52.761Z,11.07
2023-02-06T13:03:45.335Z,10.30
2023-02-06T13:06:24.735Z,9.60
2023-02-06T13:09:03.201Z,8.43
2023-02-06T13:11:35.727Z,10.15
2023-02-06T13:14:18.407Z,12.95
2023-02-06T13:17:13.512Z,8.77
2023-02-06T13:19:45.719Z,10.00
2023-02-06T13:22:17.421Z,8.23
2023-02-06T13:24:47.661Z,9.00
2023-02-06T13:27:45.117Z,7.95
2023-02-06T13:30:31.156Z,11.02
2023-02-06T13:33:10.688Z,8.05
2023-02-06T13:36:03.777Z,7.65
2023-02-06T13:38:34.239Z,9.10
2023-02-06T13:41:20.197Z,10.03
2023-02-06T13:44:05.458Z,6.63
2023-02-06T13:46:56.375Z,7.33
2023-02-06T13:49:56.217Z,9.18
2023-02-06T13:52:56.229Z,7.67
2023-02-06T13:55:44.986Z,5.68
2023-02-06T13:58:31.616Z,5.80
2023-02-06T14:00:59.999Z,8.07
2023-02-06T14:03:31.610Z,6.75
2023-02-06T14:06:13.375Z,8.25
2023-02-06T14:09:08.827Z,6.78
2023-02-06T14:12:17.022Z,8.77
2023-02-06T14:14:53.222Z,6.93
2023-02-06T14:17:47.139Z,8.18
2023-02-06T14:20:22.527Z,6.10
2023-02-06T14:23:07.085Z,6.23
2023-02-06T14:25:48.215Z,7.90
2023-02-06T14:28:15.528Z,9.98
2023-02-06T14:31:19.290Z,6.73
2023-02-06T14:34:07.485Z,7.87
2023-02-06T14:36:51.182Z,11.77
2023-02-06T14:39:40.604Z,6.30
2023-02-06T14:42:16.667Z,7.97
2023-02-06T14:44:57.297Z,7.03
2023-02-06T14:47:32.527Z,11.10
2023-02-06T14:50:01.823Z,8.87
2023-02-06T14:52:34.506Z,7.77
2023-02-06T14:55:30.903Z,6.20
2023-02-06T14:57:58.357Z,6.47
2023-02-06T15:00:28.976Z,7.13
2023-02-06T15:03:14.018Z,6.63
2023-02-06T15:05:41.538Z,6.73
2023-02-06T15:08:17.754Z,6.60
2023-02-06T15:10:45.985Z,7.37
2023-02-06T15:13:24.681Z,8.70
2023-02-06T15:15:54.208Z,9.03
2023-02-06T15:18:22.020Z,7.03
2023-02-06T15:20:58.633Z,7.87
2023-02-06T15:23:44.437Z,8.40
2023-02-06T15:26:49.341Z,7.70
2023-02-06T15:29:23.211Z,17.90
2023-02-06T15:31:55.527Z,7.93
2023-02-06T15:34:26.979Z,8.20
2023-02-06T15:36:54.940Z,7.40
2023-02-06T15:39:22.530Z,10.63
2023-02-06T15:41:56.877Z,9.00
2023-02-06T15:44:35.517Z,9.87
2023-02-06T15:47:05.087Z,8.13
2023-02-06T15:49:34.919Z,7.97
2023-02-06T15:52:03.196Z,9.83
2023-02-06T15:54:30.614Z,8.13
2023-02-06T15:57:22.494Z,9.40
2023-02-06T15:59:52.491Z,8.32
2023-02-06T16:02:36.328Z,12.07
2023-02-06T16:05:06.040Z,10.77
2023-02-06T16:07:36.859Z,10.53
2023-02-06T16:10:04.633Z,9.17
2023-02-06T16:12:37.438Z,9.00
2023-02-06T16:15:30.148Z,9.13
2023-02-06T16:18:00.130Z,9.73
2023-02-06T16:20:39.396Z,8.37
2023-02-06T16:23:28.871Z,7.97
2023-02-06T16:26:11.896Z,11.00
2023-02-06T16:28:46.150Z,10.13
2023-02-06T16:31:15.453Z,9.80
2023-02-06T16:33:50.808Z,11.63
2023-02-06T16:36:20.066Z,11.80
2023-02-06T16:38:57.725Z,11.27
2023-02-06T16:41:38.442Z,15.10
2023-02-06T16:44:14.999Z,10.90
2023-02-06T16:46:42.629Z,11.03
2023-02-06T16:49:15.470Z,12.10
2023-02-06T16:51:44.977Z,13.47
2023-02-06T16:54:38.593Z,10.47
2023-02-06T16:57:21.572Z,10.67
2023-02-06T16:59:49.103Z,11.07
2023-02-06T17:02:17.361Z,13.57
2023-02-06T17:04:44.828Z,12.20
2023-02-06T17:07:16.799Z,14.07
2023-02-06T17:09:47.710Z,14.40
2023-02-06T17:12:21.114Z,14.93
2023-02-06T17:14:48.941Z,14.40
2023-02-06T17:17:19.283Z,15.77
2023-02-06T17:19:48.117Z,15.87
2023-02-06T17:22:15.906Z,14.13
2023-02-06T17:24:45.802Z,13.50
2023-02-06T17:27:16.534Z,12.33
2023-02-06T17:29:49.875Z,13.23
2023-02-06T17:32:22.318Z,12.90
2023-02-06T17:34:51.264Z,11.47
2023-02-06T17:37:20.929Z,12.47
2023-02-06T17:40:00.402Z,11.50
2023-02-06T17:42:27.995Z,15.37
2023-02-06T17:44:57.509Z,13.77
2023-02-06T17:47:25.170Z,14.53
2023-02-06T17:49:52.708Z,11.53
2023-02-06T17:52:20.569Z,12.17
2023-02-06T17:54:50.411Z,12.93
2023-02-06T17:57:18.284Z,13.80
2023-02-06T17:59:50.116Z,12.53
2023-02-06T18:04:48.728Z,11.90
2023-02-06T18:07:16.375Z,13.10
2023-02-06T18:09:45.127Z,15.87
2023-02-06T18:12:17.076Z,12.93
2023-02-06T18:14:53.839Z,11.80
2023-02-06T18:17:21.589Z,12.13
2023-02-06T18:19:51.470Z,11.20
2023-02-06T18:22:21.318Z,13.23
2023-02-06T18:24:52.377Z,13.30
2023-02-06T18:27:26.107Z,17.45
2023-02-06T18:30:08.596Z,12.83
2023-02-06T18:32:41.051Z,15.30
2023-02-06T18:35:09.273Z,14.90
2023-02-06T18:37:39.334Z,13.83
2023-02-06T18:40:07.255Z,16.77
2023-02-06T18:42:58.536Z,23.90
2023-02-06T18:45:31.356Z,22.20
2023-02-06T18:47:58.810Z,16.27
2023-02-06T18:50:26.503Z,16.03
2023-02-06T18:52:54.032Z,15.60
2023-02-06T18:55:21.672Z,16.27
2023-02-06T18:57:49.610Z,14.87
2023-02-06T19:00:24.425Z,17.37
2023-02-06T19:02:52.170Z,15.40
2023-02-06T19:05:20.401Z,15.80
2023-02-06T19:07:54.840Z,14.93
2023-02-06T19:10:25.982Z,15.93
2023-02-06T19:13:37.724Z,16.00
2023-02-06T19:16:14.932Z,16.30
2023-02-06T19:18:47.021Z,17.77
2023-02-06T19:21:27.984Z,13.87
2023-02-06T19:23:59.783Z,16.37
2023-02-06T19:28:58.575Z,16.07
2023-02-06T19:31:26.114Z,16.63
2023-02-06T19:33:58.647Z,15.40
2023-02-06T19:36:27.424Z,17.40
2023-02-06T19:38:59.309Z,21.87
2023-02-06T19:41:31.252Z,21.23
2023-02-06T19:44:02.530Z,22.03
2023-02-06T19:46:30.261Z,22.38
2023-02-06T19:48:57.623Z,19.50
2023-02-06T19:51:29.567Z,20.33
2023-02-06T19:53:59.210Z,19.03
2023-02-06T19:56:38.482Z,20.67
2023-02-06T19:59:14.044Z,18.80
2023-02-06T20:01:41.582Z,19.93
2023-02-06T20:04:11.094Z,22.43
2023-02-06T20:06:41.573Z,16.83
2023-02-06T20:09:17.903Z,19.40
2023-02-06T20:11:45.395Z,21.20
2023-02-06T20:14:15.886Z,18.03
2023-02-06T20:16:43.952Z,18.37
2023-02-06T20:19:21.153Z,19.27
2023-02-06T20:21:51.101Z,15.63
2023-02-06T20:24:22.014Z,15.60
2023-02-06T20:26:56.291Z,15.88
2023-02-06T20:29:33.101Z,19.47
2023-02-06T20:32:01.058Z,17.90
2023-02-06T20:34:28.739Z,26.17
2023-02-06T20:36:59.647Z,27.10
2023-02-06T20:39:28.737Z,27.83
2023-02-06T20:41:56.445Z,27.10
2023-02-06T20:44:23.943Z,22.57
2023-02-06T20:46:51.387Z,22.97
2023-02-06T20:49:26.162Z,19.60
2023-02-06T20:51:54.000Z,22.57
2023-02-06T20:54:21.883Z,23.90
2023-02-06T20:56:49.828Z,19.00
2023-02-06T20:59:20.423Z,16.07
2023-02-06T21:01:48.417Z,15.70
2023-02-06T21:04:16.780Z,18.07
2023-02-06T21:06:47.910Z,19.40
2023-02-06T21:09:15.904Z,20.15
2023-02-06T21:11:48.774Z,17.73
2023-02-06T21:14:19.313Z,17.30
2023-02-06T21:16:49.642Z,19.33
2023-02-06T21:19:19.264Z,18.07
2023-02-06T21:21:49.284Z,19.90
2023-02-06T21:24:17.462Z,18.07
2023-02-06T21:26:46.873Z,15.43
2023-02-06T21:29:15.303Z,18.40
2023-02-06T21:31:43.519Z,18.40
2023-02-06T21:34:21.796Z,18.53
2023-02-06T21:36:49.813Z,16.60
2023-02-06T21:39:21.911Z,16.83
2023-02-06T21:41:51.982Z,20.27
2023-02-06T21:44:23.962Z,16.97
2023-02-06T21:46:51.832Z,16.17
2023-02-06T21:49:21.290Z,18.27
2023-02-06T21:51:50.181Z,16.57
2023-02-06T21:54:18.094Z,19.07
2023-02-06T21:56:45.603Z,16.67
2023-02-06T21:59:13.343Z,17.30
2023-02-06T22:01:42.953Z,17.00
2023-02-06T22:04:14.699Z,15.60
2023-02-06T22:09:15.278Z,15.30
2023-02-06T22:11:43.421Z,13.88
2023-02-06T22:14:16.402Z,14.10
2023-02-06T22:16:47.332Z,15.97
2023-02-06T22:19:15.952Z,17.48
2023-02-06T22:21:48.456Z,18.50
2023-02-06T22:24:15.862Z,16.50
2023-02-06T22:26:44.013Z,16.83
2023-02-06T22:29:16.788Z,16.23
2023-02-06T22:31:49.758Z,18.67
2023-02-06T22:34:19.779Z,19.03
2023-02-06T22:36:48.329Z,15.60
2023-02-06T22:39:15.845Z,14.50
2023-02-06T22:41:45.259Z,15.40
2023-02-06T22:44:16.262Z,16.80
2023-02-06T22:46:46.413Z,16.15
2023-02-06T22:49:16.718Z,16.37
2023-02-06T22:51:47.138Z,15.27
2023-02-06T22:54:17.412Z,13.97
2023-02-06T22:56:45.456Z,15.73
2023-02-06T22:59:17.265Z,17.37
2023-02-06T23:04:17.970Z,15.03
2023-02-06T23:06:48.029Z,14.90
2023-02-06T23:09:27.057Z,16.53
2023-02-06T23:11:58.160Z,14.60
2023-02-06T23:14:27.042Z,14.30
2023-02-06T23:16:54.639Z,13.77
2023-02-06T23:19:22.271Z,13.63
2023-02-06T23:21:51.328Z,14.30
2023-02-06T23:24:21.732Z,14.67
2023-02-06T23:26:50.570Z,14.53
2023-02-06T23:29:23.928Z,14.13
2023-02-06T23:31:51.844Z,13.60
2023-02-06T23:34:20.093Z,12.40
2023-02-06T23:36:47.486Z,14.97
2023-02-06T23:39:15.210Z,14.37
2023-02-06T23:41:44.995Z,14.50
2023-02-06T23:44:12.558Z,13.33
2023-02-06T23:46:43.099Z,13.87
2023-02-06T23:49:12.651Z,15.33
2023-02-06T23:51:40.051Z,12.93
2023-02-06T23:54:10.779Z,13.73
2023-02-06T23:56:40.995Z,12.53
2023-02-06T23:59:08.321Z,11.33
